sensor_id;sensor_type;location;lat;lon;timestamp;P1;durP1;ratioP1;P2;durP2;ratioP2
21120;SDS011;12519;43.318;21.898;2023-04-25T00:00:18;2.0;;;2.0;;
21120;SDS011;12519;43.318;21.898;2023-04-25T00:04:54;2.0;;;2.0;;
21120;SDS011;12519;43.318;21.898;2023-04-25T00:09:32;2.0;;;2.0;;
21120;SDS011;12519;43.318;21.898;2023-04-25T00:14:09;2.0;;;2.0;;
21120;SDS011;12519;43.318;21.898;2023-04-25T00:18:45;6.0;;;2.0;;
21120;SDS011;12519;43.318;21.898;2023-04-25T00:23:22;6.0;;;2.0;;
21120;SDS011;12519;43.318;21.898;2023-04-25T00:27:59;9.0;;;3.0;;
21120;SDS011;12519;43.318;21.898;2023-04-25T00:32:35;9.0;;;3.0;;
21120;SDS011;12519;43.318;21.898;2023-04-25T00:37:13;6.0;;;2.0;;
21120;SDS011;12519;43.318;21.898;2023-04-25T00:41:52;6.0;;;2.0;;
21120;SDS011;12519;43.318;21.898;2023-04-25T00:46:32;4.0;;;2.0;;
21120;SDS011;12519;43.318;21.898;2023-04-25T00:51:20;4.0;;;2.0;;
21120;SDS011;12519;43.318;21.898;2023-04-25T00:56:02;4.0;;;2.0;;
21120;SDS011;12519;43.318;21.898;2023-04-25T01:00:43;4.0;;;2.0;;
21120;SDS011;12519;43.318;21.898;2023-04-25T01:05:24;5.0;;;3.0;;
21120;SDS011;12519;43.318;21.898;2023-04-25T01:10:04;5.0;;;3.0;;
21120;SDS011;12519;43.318;21.898;2023-04-25T01:14:46;5.0;;;3.0;;
21120;SDS011;12519;43.318;21.898;2023-04-25T01:19:25;4.0;;;2.0;;
21120;SDS011;12519;43.318;21.898;2023-04-25T01:24:04;4.0;;;2.0;;
21120;SDS011;12519;43.318;21.898;2023-04-25T01:28:44;2.0;;;2.0;;
21120;SDS011;12519;43.318;21.898;2023-04-25T01:33:22;2.0;;;2.0;;
21120;SDS011;12519;43.318;21.898;2023-04-25T01:38:00;2.0;;;2.0;;
21120;SDS011;12519;43.318;21.898;2023-04-25T01:42:43;2.0;;;2.0;;
21120;SDS011;12519;43.318;21.898;2023-04-25T01:47:21;2.0;;;2.0;;
21120;SDS011;12519;43.318;21.898;2023-04-25T01:51:58;2.0;;;2.0;;
21120;SDS011;12519;43.318;21.898;2023-04-25T01:56:39;2.0;;;2.0;;
21120;SDS011;12519;43.318;21.898;2023-04-25T02:01:16;2.0;;;2.0;;
21120;SDS011;12519;43.318;21.898;2023-04-25T02:05:53;2.0;;;2.0;;
21120;SDS011;12519;43.318;21.898;2023-04-25T02:10:30;2.0;;;2.0;;
21120;SDS011;12519;43.318;21.898;2023-04-25T02:15:08;2.0;;;2.0;;
21120;SDS011;12519;43.318;21.898;2023-04-25T02:19:46;2.0;;;2.0;;
21120;SDS011;12519;43.318;21.898;2023-04-25T02:24:23;2.0;;;2.0;;
21120;SDS011;12519;43.318;21.898;2023-04-25T02:29:00;2.0;;;2.0;;
21120;SDS011;12519;43.318;21.898;2023-04-25T02:33:37;2.0;;;2.0;;
21120;SDS011;12519;43.318;21.898;2023-04-25T02:38:13;2.0;;;2.0;;
21120;SDS011;12519;43.318;21.898;2023-04-25T02:42:50;2.0;;;2.0;;
21120;SDS011;12519;43.318;21.898;2023-04-25T02:47:27;2.0;;;2.0;;
21120;SDS011;12519;43.318;21.898;2023-04-25T02:52:04;2.0;;;2.0;;
21120;SDS011;12519;43.318;21.898;2023-04-25T02:56:40;4.0;;;3.0;;
21120;SDS011;12519;43.318;21.898;2023-04-25T03:01:17;4.0;;;3.0;;
21120;SDS011;12519;43.318;21.898;2023-04-25T03:05:53;5.0;;;4.0;;
21120;SDS011;12519;43.318;21.898;2023-04-25T03:10:30;5.0;;;4.0;;
21120;SDS011;12519;43.318;21.898;2023-04-25T03:15:09;5.0;;;4.0;;
21120;SDS011;12519;43.318;21.898;2023-04-25T03:19:46;4.0;;;4.0;;
21120;SDS011;12519;43.318;21.898;2023-04-25T03:24:24;4.0;;;4.0;;
21120;SDS011;12519;43.318;21.898;2023-04-25T03:29:01;3.0;;;3.0;;
21120;SDS011;12519;43.318;21.898;2023-04-25T03:33:38;3.0;;;3.0;;
21120;SDS011;12519;43.318;21.898;2023-04-25T03:38:16;4.0;;;4.0;;
21120;SDS011;12519;43.318;21.898;2023-04-25T03:42:54;4.0;;;4.0;;
21120;SDS011;12519;43.318;21.898;2023-04-25T03:47:31;5.0;;;4.0;;
21120;SDS011;12519;43.318;21.898;2023-04-25T03:52:08;5.0;;;4.0;;
21120;SDS011;12519;43.318;21.898;2023-04-25T03:56:45;6.0;;;5.0;;
21120;SDS011;12519;43.318;21.898;2023-04-25T04:01:21;6.0;;;5.0;;
21120;SDS011;12519;43.318;21.898;2023-04-25T04:05:58;7.0;;;6.0;;
21120;SDS011;12519;43.318;21.898;2023-04-25T04:10:34;7.0;;;6.0;;
21120;SDS011;12519;43.318;21.898;2023-04-25T04:15:11;7.0;;;6.0;;
21120;SDS011;12519;43.318;21.898;2023-04-25T04:19:48;8.0;;;7.0;;
21120;SDS011;12519;43.318;21.898;2023-04-25T04:24:25;8.0;;;7.0;;
21120;SDS011;12519;43.318;21.898;2023-04-25T04:29:01;9.0;;;8.0;;
21120;SDS011;12519;43.318;21.898;2023-04-25T04:33:38;9.0;;;8.0;;
21120;SDS011;12519;43.318;21.898;2023-04-25T04:38:14;16.0;;;13.0;;
21120;SDS011;12519;43.318;21.898;2023-04-25T04:42:51;16.0;;;13.0;;
21120;SDS011;12519;43.318;21.898;2023-04-25T04:47:27;24.0;;;18.0;;
21120;SDS011;12519;43.318;21.898;2023-04-25T04:52:04;24.0;;;18.0;;
21120;SDS011;12519;43.318;21.898;2023-04-25T04:56:41;22.0;;;16.0;;
21120;SDS011;12519;43.318;21.898;2023-04-25T05:01:17;22.0;;;16.0;;
21120;SDS011;12519;43.318;21.898;2023-04-25T05:05:55;19.0;;;15.0;;
21120;SDS011;12519;43.318;21.898;2023-04-25T05:10:32;19.0;;;15.0;;
21120;SDS011;12519;43.318;21.898;2023-04-25T05:15:10;19.0;;;15.0;;
21120;SDS011;12519;43.318;21.898;2023-04-25T05:19:47;18.0;;;14.0;;
21120;SDS011;12519;43.318;21.898;2023-04-25T05:24:23;18.0;;;14.0;;
21120;SDS011;12519;43.318;21.898;2023-04-25T05:29:00;17.0;;;14.0;;
21120;SDS011;12519;43.318;21.898;2023-04-25T05:33:37;17.0;;;14.0;;
21120;SDS011;12519;43.318;21.898;2023-04-25T05:38:14;16.0;;;12.0;;
21120;SDS011;12519;43.318;21.898;2023-04-25T05:42:50;16.0;;;12.0;;
21120;SDS011;12519;43.318;21.898;2023-04-25T05:47:27;14.0;;;10.0;;
21120;SDS011;12519;43.318;21.898;2023-04-25T05:52:04;14.0;;;10.0;;
21120;SDS011;12519;43.318;21.898;2023-04-25T05:56:41;16.0;;;10.0;;
21120;SDS011;12519;43.318;21.898;2023-04-25T06:01:19;16.0;;;10.0;;
21120;SDS011;12519;43.318;21.898;2023-04-25T06:05:57;18.0;;;11.0;;
21120;SDS011;12519;43.318;21.898;2023-04-25T06:10:35;18.0;;;11.0;;
21120;SDS011;12519;43.318;21.898;2023-04-25T06:15:13;18.0;;;11.0;;
21120;SDS011;12519;43.318;21.898;2023-04-25T06:19:50;20.0;;;16.0;;
21120;SDS011;12519;43.318;21.898;2023-04-25T06:24:28;20.0;;;16.0;;
21120;SDS011;12519;43.318;21.898;2023-04-25T06:29:05;23.0;;;22.0;;
21120;SDS011;12519;43.318;21.898;2023-04-25T06:33:43;23.0;;;22.0;;
21120;SDS011;12519;43.318;21.898;2023-04-25T06:38:19;20.0;;;18.0;;
21120;SDS011;12519;43.318;21.898;2023-04-25T06:42:56;20.0;;;18.0;;
21120;SDS011;12519;43.318;21.898;2023-04-25T06:47:32;16.0;;;15.0;;
21120;SDS011;12519;43.318;21.898;2023-04-25T06:52:09;16.0;;;15.0;;
21120;SDS011;12519;43.318;21.898;2023-04-25T06:56:45;12.0;;;11.0;;
21120;SDS011;12519;43.318;21.898;2023-04-25T07:01:22;12.0;;;11.0;;
21120;SDS011;12519;43.318;21.898;2023-04-25T07:05:59;7.0;;;7.0;;
21120;SDS011;12519;43.318;21.898;2023-04-25T07:10:35;7.0;;;7.0;;
21120;SDS011;12519;43.318;21.898;2023-04-25T07:15:12;7.0;;;7.0;;
21120;SDS011;12519;43.318;21.898;2023-04-25T07:19:48;8.0;;;8.0;;
21120;SDS011;12519;43.318;21.898;2023-04-25T07:24:25;8.0;;;8.0;;
21120;SDS011;12519;43.318;21.898;2023-04-25T07:29:02;9.0;;;9.0;;
21120;SDS011;12519;43.318;21.898;2023-04-25T07:33:38;9.0;;;9.0;;
21120;SDS011;12519;43.318;21.898;2023-04-25T07:38:15;7.0;;;7.0;;
21120;SDS011;12519;43.318;21.898;2023-04-25T07:42:52;7.0;;;7.0;;
21120;SDS011;12519;43.318;21.898;2023-04-25T07:47:28;5.0;;;5.0;;
21120;SDS011;12519;43.318;21.898;2023-04-25T07:52:06;5.0;;;5.0;;
21120;SDS011;12519;43.318;21.898;2023-04-25T07:56:42;4.0;;;4.0;;
21120;SDS011;12519;43.318;21.898;2023-04-25T08:01:18;4.0;;;4.0;;
21120;SDS011;12519;43.318;21.898;2023-04-25T08:05:55;3.0;;;3.0;;
21120;SDS011;12519;43.318;21.898;2023-04-25T08:10:32;3.0;;;3.0;;
21120;SDS011;12519;43.318;21.898;2023-04-25T08:15:11;3.0;;;3.0;;
21120;SDS011;12519;43.318;21.898;2023-04-25T08:19:48;4.0;;;4.0;;
21120;SDS011;12519;43.318;21.898;2023-04-25T08:24:24;4.0;;;4.0;;
21120;SDS011;12519;43.318;21.898;2023-04-25T08:29:01;4.0;;;4.0;;
21120;SDS011;12519;43.318;21.898;2023-04-25T08:33:38;4.0;;;4.0;;
21120;SDS011;12519;43.318;21.898;2023-04-25T08:38:15;5.0;;;4.0;;
21120;SDS011;12519;43.318;21.898;2023-04-25T08:42:57;5.0;;;4.0;;
21120;SDS011;12519;43.318;21.898;2023-04-25T08:47:39;6.0;;;5.0;;
21120;SDS011;12519;43.318;21.898;2023-04-25T08:52:30;6.0;;;5.0;;
21120;SDS011;12519;43.318;21.898;2023-04-25T08:57:23;6.0;;;5.0;;
21120;SDS011;12519;43.318;21.898;2023-04-25T09:02:03;6.0;;;5.0;;
21120;SDS011;12519;43.318;21.898;2023-04-25T09:06:41;6.0;;;5.0;;
21120;SDS011;12519;43.318;21.898;2023-04-25T09:11:19;6.0;;;5.0;;
21120;SDS011;12519;43.318;21.898;2023-04-25T09:15:58;6.0;;;5.0;;
21120;SDS011;12519;43.318;21.898;2023-04-25T09:20:43;6.0;;;5.0;;
21120;SDS011;12519;43.318;21.898;2023-04-25T09:25:20;6.0;;;5.0;;
21120;SDS011;12519;43.318;21.898;2023-04-25T09:29:59;6.0;;;5.0;;
21120;SDS011;12519;43.318;21.898;2023-04-25T09:34:42;6.0;;;5.0;;
21120;SDS011;12519;43.318;21.898;2023-04-25T09:39:22;5.0;;;4.0;;
21120;SDS011;12519;43.318;21.898;2023-04-25T09:43:59;5.0;;;4.0;;
21120;SDS011;12519;43.318;21.898;2023-04-25T09:48:35;4.0;;;4.0;;
21120;SDS011;12519;43.318;21.898;2023-04-25T09:53:12;4.0;;;4.0;;
21120;SDS011;12519;43.318;21.898;2023-04-25T09:58:04;4.0;;;4.0;;
21120;SDS011;12519;43.318;21.898;2023-04-25T10:02:48;4.0;;;4.0;;
21120;SDS011;12519;43.318;21.898;2023-04-25T10:07:36;5.0;;;4.0;;
21120;SDS011;12519;43.318;21.898;2023-04-25T10:12:15;5.0;;;4.0;;
21120;SDS011;12519;43.318;21.898;2023-04-25T10:16:57;5.0;;;4.0;;
21120;SDS011;12519;43.318;21.898;2023-04-25T10:21:51;5.0;;;4.0;;
21120;SDS011;12519;43.318;21.898;2023-04-25T10:26:40;5.0;;;5.0;;
21120;SDS011;12519;43.318;21.898;2023-04-25T10:31:18;5.0;;;5.0;;
21120;SDS011;12519;43.318;21.898;2023-04-25T10:35:58;5.0;;;5.0;;
21120;SDS011;12519;43.318;21.898;2023-04-25T10:41:05;4.0;;;4.0;;
21120;SDS011;12519;43.318;21.898;2023-04-25T10:45:52;4.0;;;4.0;;
21120;SDS011;12519;43.318;21.898;2023-04-25T10:50:38;4.0;;;4.0;;
21120;SDS011;12519;43.318;21.898;2023-04-25T10:55:15;4.0;;;4.0;;
21120;SDS011;12519;43.318;21.898;2023-04-25T10:59:51;6.0;;;5.0;;
21120;SDS011;12519;43.318;21.898;2023-04-25T11:04:33;6.0;;;5.0;;
21120;SDS011;12519;43.318;21.898;2023-04-25T11:09:12;7.0;;;6.0;;
21120;SDS011;12519;43.318;21.898;2023-04-25T11:13:50;7.0;;;6.0;;
21120;SDS011;12519;43.318;21.898;2023-04-25T11:18:27;7.0;;;6.0;;
21120;SDS011;12519;43.318;21.898;2023-04-25T11:23:05;7.0;;;6.0;;
21120;SDS011;12519;43.318;21.898;2023-04-25T11:27:53;7.0;;;7.0;;
21120;SDS011;12519;43.318;21.898;2023-04-25T11:32:35;7.0;;;7.0;;
21120;SDS011;12519;43.318;21.898;2023-04-25T11:37:13;8.0;;;8.0;;
21120;SDS011;12519;43.318;21.898;2023-04-25T11:41:53;8.0;;;8.0;;
21120;SDS011;12519;43.318;21.898;2023-04-25T11:46:34;8.0;;;8.0;;
21120;SDS011;12519;43.318;21.898;2023-04-25T11:51:12;8.0;;;8.0;;
21120;SDS011;12519;43.318;21.898;2023-04-25T11:55:48;8.0;;;8.0;;
21120;SDS011;12519;43.318;21.898;2023-04-25T12:00:26;9.0;;;8.0;;
21120;SDS011;12519;43.318;21.898;2023-04-25T12:05:08;9.0;;;8.0;;
21120;SDS011;12519;43.318;21.898;2023-04-25T12:09:52;10.0;;;9.0;;
21120;SDS011;12519;43.318;21.898;2023-04-25T12:14:34;10.0;;;9.0;;
21120;SDS011;12519;43.318;21.898;2023-04-25T12:19:16;11.0;;;9.0;;
21120;SDS011;12519;43.318;21.898;2023-04-25T12:23:55;11.0;;;9.0;;
21120;SDS011;12519;43.318;21.898;2023-04-25T12:28:33;12.0;;;9.0;;
21120;SDS011;12519;43.318;21.898;2023-04-25T12:33:09;12.0;;;9.0;;
21120;SDS011;12519;43.318;21.898;2023-04-25T12:37:45;12.0;;;9.0;;
21120;SDS011;12519;43.318;21.898;2023-04-25T12:42:22;12.0;;;9.0;;
21120;SDS011;12519;43.318;21.898;2023-04-25T12:46:59;13.0;;;9.0;;
21120;SDS011;12519;43.318;21.898;2023-04-25T12:51:37;13.0;;;9.0;;
21120;SDS011;12519;43.318;21.898;2023-04-25T12:56:13;13.0;;;9.0;;
21120;SDS011;12519;43.318;21.898;2023-04-25T13:00:50;11.0;;;9.0;;
21120;SDS011;12519;43.318;21.898;2023-04-25T13:05:27;11.0;;;9.0;;
21120;SDS011;12519;43.318;21.898;2023-04-25T13:10:07;9.0;;;9.0;;
21120;SDS011;12519;43.318;21.898;2023-04-25T13:14:44;9.0;;;9.0;;
21120;SDS011;12519;43.318;21.898;2023-04-25T13:19:20;9.0;;;8.0;;
21120;SDS011;12519;43.318;21.898;2023-04-25T13:23:57;9.0;;;8.0;;
21120;SDS011;12519;43.318;21.898;2023-04-25T13:28:34;9.0;;;8.0;;
21120;SDS011;12519;43.318;21.898;2023-04-25T13:33:11;9.0;;;8.0;;
21120;SDS011;12519;43.318;21.898;2023-04-25T13:37:48;10.0;;;9.0;;
21120;SDS011;12519;43.318;21.898;2023-04-25T13:42:24;10.0;;;9.0;;
21120;SDS011;12519;43.318;21.898;2023-04-25T13:47:01;10.0;;;10.0;;
21120;SDS011;12519;43.318;21.898;2023-04-25T13:51:38;10.0;;;10.0;;
21120;SDS011;12519;43.318;21.898;2023-04-25T13:56:16;10.0;;;10.0;;
21120;SDS011;12519;43.318;21.898;2023-04-25T14:00:54;10.0;;;10.0;;
21120;SDS011;12519;43.318;21.898;2023-04-25T14:05:31;10.0;;;10.0;;
21120;SDS011;12519;43.318;21.898;2023-04-25T14:10:10;10.0;;;9.0;;
21120;SDS011;12519;43.318;21.898;2023-04-25T14:14:47;10.0;;;9.0;;
21120;SDS011;12519;43.318;21.898;2023-04-25T14:19:24;10.0;;;9.0;;
21120;SDS011;12519;43.318;21.898;2023-04-25T14:24:02;10.0;;;9.0;;
21120;SDS011;12519;43.318;21.898;2023-04-25T14:28:40;9.0;;;9.0;;
21120;SDS011;12519;43.318;21.898;2023-04-25T14:33:17;9.0;;;9.0;;
21120;SDS011;12519;43.318;21.898;2023-04-25T14:37:54;10.0;;;10.0;;
21120;SDS011;12519;43.318;21.898;2023-04-25T14:42:31;10.0;;;10.0;;
21120;SDS011;12519;43.318;21.898;2023-04-25T14:47:08;12.0;;;11.0;;
21120;SDS011;12519;43.318;21.898;2023-04-25T14:51:44;12.0;;;11.0;;
21120;SDS011;12519;43.318;21.898;2023-04-25T14:56:21;12.0;;;11.0;;
21120;SDS011;12519;43.318;21.898;2023-04-25T15:00:59;16.0;;;15.0;;
21120;SDS011;12519;43.318;21.898;2023-04-25T15:05:36;16.0;;;15.0;;
21120;SDS011;12519;43.318;21.898;2023-04-25T15:10:13;20.0;;;19.0;;
21120;SDS011;12519;43.318;21.898;2023-04-25T15:14:50;20.0;;;19.0;;
21120;SDS011;12519;43.318;21.898;2023-04-25T15:19:27;16.0;;;15.0;;
21120;SDS011;12519;43.318;21.898;2023-04-25T15:24:05;16.0;;;15.0;;
21120;SDS011;12519;43.318;21.898;2023-04-25T15:28:42;12.0;;;11.0;;
21120;SDS011;12519;43.318;21.898;2023-04-25T15:33:19;12.0;;;11.0;;
21120;SDS011;12519;43.318;21.898;2023-04-25T15:37:56;12.0;;;11.0;;
21120;SDS011;12519;43.318;21.898;2023-04-25T15:42:32;12.0;;;11.0;;
21120;SDS011;12519;43.318;21.898;2023-04-25T15:47:09;11.0;;;11.0;;
21120;SDS011;12519;43.318;21.898;2023-04-25T15:51:45;11.0;;;11.0;;
21120;SDS011;12519;43.318;21.898;2023-04-25T15:56:22;11.0;;;11.0;;
21120;SDS011;12519;43.318;21.898;2023-04-25T16:00:59;10.0;;;10.0;;
21120;SDS011;12519;43.318;21.898;2023-04-25T16:05:36;10.0;;;10.0;;
21120;SDS011;12519;43.318;21.898;2023-04-25T16:10:14;9.0;;;9.0;;
21120;SDS011;12519;43.318;21.898;2023-04-25T16:14:54;9.0;;;9.0;;
21120;SDS011;12519;43.318;21.898;2023-04-25T16:19:30;11.0;;;11.0;;
21120;SDS011;12519;43.318;21.898;2023-04-25T16:24:08;11.0;;;11.0;;
21120;SDS011;12519;43.318;21.898;2023-04-25T16:28:45;13.0;;;13.0;;
21120;SDS011;12519;43.318;21.898;2023-04-25T16:33:22;13.0;;;13.0;;
21120;SDS011;12519;43.318;21.898;2023-04-25T16:38:00;16.0;;;14.0;;
21120;SDS011;12519;43.318;21.898;2023-04-25T16:42:37;16.0;;;14.0;;
21120;SDS011;12519;43.318;21.898;2023-04-25T16:47:14;19.0;;;16.0;;
21120;SDS011;12519;43.318;21.898;2023-04-25T16:51:51;19.0;;;16.0;;
21120;SDS011;12519;43.318;21.898;2023-04-25T16:56:29;19.0;;;16.0;;
21120;SDS011;12519;43.318;21.898;2023-04-25T17:01:06;18.0;;;16.0;;
21120;SDS011;12519;43.318;21.898;2023-04-25T17:05:43;18.0;;;16.0;;
21120;SDS011;12519;43.318;21.898;2023-04-25T17:10:20;17.0;;;15.0;;
21120;SDS011;12519;43.318;21.898;2023-04-25T17:14:57;17.0;;;15.0;;
21120;SDS011;12519;43.318;21.898;2023-04-25T17:19:33;20.0;;;17.0;;
21120;SDS011;12519;43.318;21.898;2023-04-25T17:24:10;20.0;;;17.0;;
21120;SDS011;12519;43.318;21.898;2023-04-25T17:28:46;23.0;;;19.0;;
21120;SDS011;12519;43.318;21.898;2023-04-25T17:33:23;23.0;;;19.0;;
21120;SDS011;12519;43.318;21.898;2023-04-25T17:38:00;18.0;;;16.0;;
21120;SDS011;12519;43.318;21.898;2023-04-25T17:42:38;18.0;;;16.0;;
21120;SDS011;12519;43.318;21.898;2023-04-25T17:47:16;13.0;;;12.0;;
21120;SDS011;12519;43.318;21.898;2023-04-25T17:51:53;13.0;;;12.0;;
21120;SDS011;12519;43.318;21.898;2023-04-25T17:56:29;13.0;;;12.0;;
21120;SDS011;12519;43.318;21.898;2023-04-25T18:01:06;13.0;;;12.0;;
21120;SDS011;12519;43.318;21.898;2023-04-25T18:05:43;13.0;;;12.0;;
21120;SDS011;12519;43.318;21.898;2023-04-25T18:10:20;13.0;;;12.0;;
21120;SDS011;12519;43.318;21.898;2023-04-25T18:14:56;13.0;;;12.0;;
21120;SDS011;12519;43.318;21.898;2023-04-25T18:19:33;27.0;;;22.0;;
21120;SDS011;12519;43.318;21.898;2023-04-25T18:24:11;27.0;;;22.0;;
21120;SDS011;12519;43.318;21.898;2023-04-25T18:28:47;41.0;;;32.0;;
21120;SDS011;12519;43.318;21.898;2023-04-25T18:33:24;41.0;;;32.0;;
21120;SDS011;12519;43.318;21.898;2023-04-25T18:38:01;32.0;;;25.0;;
21120;SDS011;12519;43.318;21.898;2023-04-25T18:42:37;32.0;;;25.0;;
21120;SDS011;12519;43.318;21.898;2023-04-25T18:47:14;22.0;;;18.0;;
21120;SDS011;12519;43.318;21.898;2023-04-25T18:51:51;22.0;;;18.0;;
21120;SDS011;12519;43.318;21.898;2023-04-25T18:56:28;22.0;;;18.0;;
21120;SDS011;12519;43.318;21.898;2023-04-25T19:01:05;36.0;;;26.0;;
21120;SDS011;12519;43.318;21.898;2023-04-25T19:05:42;36.0;;;26.0;;
21120;SDS011;12519;43.318;21.898;2023-04-25T19:10:19;49.0;;;34.0;;
21120;SDS011;12519;43.318;21.898;2023-04-25T19:14:55;49.0;;;34.0;;
21120;SDS011;12519;43.318;21.898;2023-04-25T19:19:32;38.0;;;29.0;;
21120;SDS011;12519;43.318;21.898;2023-04-25T19:24:09;38.0;;;29.0;;
21120;SDS011;12519;43.318;21.898;2023-04-25T19:28:46;27.0;;;24.0;;
21120;SDS011;12519;43.318;21.898;2023-04-25T19:33:44;27.0;;;24.0;;
21120;SDS011;12519;43.318;21.898;2023-04-25T19:38:21;32.0;;;27.0;;
21120;SDS011;12519;43.318;21.898;2023-04-25T19:42:59;32.0;;;27.0;;
21120;SDS011;12519;43.318;21.898;2023-04-25T19:47:36;38.0;;;30.0;;
21120;SDS011;12519;43.318;21.898;2023-04-25T19:52:13;38.0;;;30.0;;
21120;SDS011;12519;43.318;21.898;2023-04-25T19:56:50;38.0;;;30.0;;
21120;SDS011;12519;43.318;21.898;2023-04-25T20:01:27;41.0;;;32.0;;
21120;SDS011;12519;43.318;21.898;2023-04-25T20:06:03;41.0;;;32.0;;
21120;SDS011;12519;43.318;21.898;2023-04-25T20:10:40;44.0;;;35.0;;
21120;SDS011;12519;43.318;21.898;2023-04-25T20:15:17;44.0;;;35.0;;
21120;SDS011;12519;43.318;21.898;2023-04-25T20:19:53;40.0;;;34.0;;
21120;SDS011;12519;43.318;21.898;2023-04-25T20:24:30;40.0;;;34.0;;
21120;SDS011;12519;43.318;21.898;2023-04-25T20:29:06;36.0;;;32.0;;
21120;SDS011;12519;43.318;21.898;2023-04-25T20:33:44;36.0;;;32.0;;
21120;SDS011;12519;43.318;21.898;2023-04-25T20:38:22;32.0;;;30.0;;
21120;SDS011;12519;43.318;21.898;2023-04-25T20:42:58;32.0;;;30.0;;
21120;SDS011;12519;43.318;21.898;2023-04-25T20:47:35;29.0;;;27.0;;
21120;SDS011;12519;43.318;21.898;2023-04-25T20:52:11;29.0;;;27.0;;
21120;SDS011;12519;43.318;21.898;2023-04-25T20:56:48;29.0;;;27.0;;
21120;SDS011;12519;43.318;21.898;2023-04-25T21:01:25;29.0;;;27.0;;
21120;SDS011;12519;43.318;21.898;2023-04-25T21:06:03;29.0;;;27.0;;
21120;SDS011;12519;43.318;21.898;2023-04-25T21:10:40;29.0;;;27.0;;
21120;SDS011;12519;43.318;21.898;2023-04-25T21:15:17;29.0;;;27.0;;
21120;SDS011;12519;43.318;21.898;2023-04-25T21:19:54;28.0;;;27.0;;
21120;SDS011;12519;43.318;21.898;2023-04-25T21:24:30;28.0;;;27.0;;
21120;SDS011;12519;43.318;21.898;2023-04-25T21:29:07;28.0;;;27.0;;
21120;SDS011;12519;43.318;21.898;2023-04-25T21:33:44;28.0;;;27.0;;
21120;SDS011;12519;43.318;21.898;2023-04-25T21:38:20;28.0;;;27.0;;
21120;SDS011;12519;43.318;21.898;2023-04-25T21:42:57;28.0;;;27.0;;
21120;SDS011;12519;43.318;21.898;2023-04-25T21:47:34;29.0;;;27.0;;
21120;SDS011;12519;43.318;21.898;2023-04-25T21:52:11;29.0;;;27.0;;
21120;SDS011;12519;43.318;21.898;2023-04-25T21:56:48;29.0;;;27.0;;
21120;SDS011;12519;43.318;21.898;2023-04-25T22:01:25;30.0;;;28.0;;
21120;SDS011;12519;43.318;21.898;2023-04-25T22:06:03;30.0;;;28.0;;
21120;SDS011;12519;43.318;21.898;2023-04-25T22:10:41;32.0;;;28.0;;
21120;SDS011;12519;43.318;21.898;2023-04-25T22:15:20;32.0;;;28.0;;
21120;SDS011;12519;43.318;21.898;2023-04-25T22:19:58;28.0;;;26.0;;
21120;SDS011;12519;43.318;21.898;2023-04-25T22:24:36;28.0;;;26.0;;
21120;SDS011;12519;43.318;21.898;2023-04-25T22:29:14;25.0;;;23.0;;
21120;SDS011;12519;43.318;21.898;2023-04-25T22:33:51;25.0;;;23.0;;
21120;SDS011;12519;43.318;21.898;2023-04-25T22:38:27;25.0;;;22.0;;
21120;SDS011;12519;43.318;21.898;2023-04-25T22:43:04;25.0;;;22.0;;
21120;SDS011;12519;43.318;21.898;2023-04-25T22:47:40;25.0;;;22.0;;
21120;SDS011;12519;43.318;21.898;2023-04-25T22:52:17;25.0;;;20.0;;
21120;SDS011;12519;43.318;21.898;2023-04-25T22:56:53;25.0;;;20.0;;
21120;SDS011;12519;43.318;21.898;2023-04-25T23:01:29;23.0;;;19.0;;
21120;SDS011;12519;43.318;21.898;2023-04-25T23:06:06;23.0;;;19.0;;
21120;SDS011;12519;43.318;21.898;2023-04-25T23:10:42;21.0;;;18.0;;
21120;SDS011;12519;43.318;21.898;2023-04-25T23:15:19;21.0;;;18.0;;
21120;SDS011;12519;43.318;21.898;2023-04-25T23:19:56;24.0;;;20.0;;
21120;SDS011;12519;43.318;21.898;2023-04-25T23:24:35;24.0;;;20.0;;
21120;SDS011;12519;43.318;21.898;2023-04-25T23:29:12;26.0;;;21.0;;
21120;SDS011;12519;43.318;21.898;2023-04-25T23:33:48;26.0;;;21.0;;
21120;SDS011;12519;43.318;21.898;2023-04-25T23:38:25;24.0;;;20.0;;
21120;SDS011;12519;43.318;21.898;2023-04-25T23:43:02;24.0;;;20.0;;
21120;SDS011;12519;43.318;21.898;2023-04-25T23:47:39;24.0;;;20.0;;
21120;SDS011;12519;43.318;21.898;2023-04-25T23:52:15;23.0;;;18.0;;
21120;SDS011;12519;43.318;21.898;2023-04-25T23:56:52;23.0;;;18.0;;
